createdAt,value
2024-02-02T00:01:27.204Z,65.43
2024-02-02T00:03:55.427Z,65.63
2024-02-02T00:06:24.257Z,65.86
2024-02-02T00:08:52.434Z,66.02
2024-02-02T00:11:20.739Z,66.47
2024-02-02T00:13:49.591Z,66.83
2024-02-02T00:16:17.670Z,66.82
2024-02-02T00:18:46.166Z,67.28
2024-02-02T00:21:14.173Z,67.57
2024-02-02T00:23:42.275Z,67.23
2024-02-02T00:26:10.235Z,66.93
2024-02-02T00:28:38.134Z,66.94
2024-02-02T00:31:06.120Z,67.05
2024-02-02T00:33:34.303Z,67.70
2024-02-02T00:36:04.271Z,67.98
2024-02-02T00:38:32.307Z,68.47
2024-02-02T00:41:00.362Z,68.63
2024-02-02T00:43:28.822Z,69.93
2024-02-02T00:45:56.754Z,69.82
2024-02-02T00:48:25.106Z,69.69
2024-02-02T00:50:53.161Z,69.58
2024-02-02T00:53:21.083Z,69.92
2024-02-02T00:55:49.074Z,69.29
2024-02-02T00:58:17.295Z,69.65
2024-02-02T01:00:45.367Z,70.10
2024-02-02T01:03:13.520Z,70.44
2024-02-02T01:05:41.775Z,70.10
2024-02-02T01:08:10.033Z,70.54
2024-02-02T01:10:38.102Z,70.41
2024-02-02T01:13:06.934Z,70.70
2024-02-02T01:15:36.088Z,70.05
2024-02-02T01:18:08.684Z,69.68
2024-02-02T01:20:36.876Z,69.85
2024-02-02T01:23:04.961Z,70.62
2024-02-02T01:25:33.537Z,70.51
2024-02-02T01:28:01.766Z,70.55
2024-02-02T01:30:31.265Z,70.52
2024-02-02T01:32:59.539Z,69.99
2024-02-02T01:35:27.878Z,69.68
2024-02-02T01:37:56.021Z,69.48
2024-02-02T01:40:24.271Z,70.07
2024-02-02T01:42:52.448Z,69.89
2024-02-02T01:45:20.434Z,69.99
2024-02-02T01:47:48.462Z,69.73
2024-02-02T01:50:16.560Z,70.53
2024-02-02T01:52:44.564Z,71.02
2024-02-02T01:55:13.136Z,70.83
2024-02-02T01:57:41.368Z,70.37
2024-02-02T02:00:10.085Z,70.51
2024-02-02T02:02:38.379Z,70.01
2024-02-02T02:05:06.998Z,70.01
2024-02-02T02:07:35.075Z,69.61
2024-02-02T02:10:05.063Z,70.32
2024-02-02T02:12:33.173Z,70.56
2024-02-02T02:15:01.425Z,71.02
2024-02-02T02:17:29.752Z,70.54
2024-02-02T02:19:59.995Z,69.98
2024-02-02T02:22:28.347Z,69.63
2024-02-02T02:24:56.269Z,69.37
2024-02-02T02:27:24.296Z,69.34
2024-02-02T02:29:52.201Z,69.56
2024-02-02T02:32:20.349Z,69.63
2024-02-02T02:34:48.397Z,69.88
2024-02-02T02:37:17.456Z,70.67
2024-02-02T02:39:45.853Z,70.74
2024-02-02T02:42:14.150Z,70.51
2024-02-02T02:44:43.146Z,70.32
2024-02-02T02:47:12.447Z,69.98
2024-02-02T02:49:41.057Z,70.08
2024-02-02T02:52:09.375Z,70.17
2024-02-02T02:54:37.378Z,70.31
2024-02-02T02:57:06.013Z,70.80
2024-02-02T02:59:34.262Z,70.98
2024-02-02T03:02:02.569Z,71.23
2024-02-02T03:04:30.529Z,70.83
2024-02-02T03:06:59.207Z,70.55
2024-02-02T03:09:27.323Z,70.73
2024-02-02T03:11:55.907Z,70.36
2024-02-02T03:14:24.130Z,70.23
2024-02-02T03:16:52.283Z,70.35
2024-02-02T03:19:20.575Z,71.03
2024-02-02T03:21:48.731Z,71.23
2024-02-02T03:24:17.069Z,71.16
2024-02-02T03:26:44.845Z,70.81
2024-02-02T03:29:13.105Z,70.51
2024-02-02T03:31:41.222Z,70.58
2024-02-02T03:34:09.241Z,70.42
2024-02-02T03:36:37.538Z,70.30
2024-02-02T03:39:05.544Z,70.47
2024-02-02T03:41:33.425Z,70.89
2024-02-02T03:44:01.516Z,71.50
2024-02-02T03:46:29.654Z,71.55
2024-02-02T03:48:59.128Z,71.01
2024-02-02T03:51:27.295Z,70.77
2024-02-02T03:53:55.659Z,70.37
2024-02-02T03:56:23.820Z,70.34
2024-02-02T03:58:51.972Z,70.24
2024-02-02T04:01:20.771Z,70.54
2024-02-02T04:03:49.051Z,71.12
2024-02-02T04:06:17.659Z,71.18
2024-02-02T04:08:45.465Z,71.49
2024-02-02T04:11:13.669Z,71.48
2024-02-02T04:13:43.549Z,71.65
2024-02-02T04:16:11.862Z,71.47
2024-02-02T04:18:39.912Z,71.00
2024-02-02T04:21:08.080Z,70.64
2024-02-02T04:23:36.385Z,70.34
2024-02-02T04:26:04.643Z,70.24
2024-02-02T04:28:32.749Z,70.19
2024-02-02T04:31:01.119Z,70.62
2024-02-02T04:33:29.372Z,70.92
2024-02-02T04:35:57.790Z,71.08
2024-02-02T04:38:25.944Z,70.79
2024-02-02T04:40:54.242Z,70.61
2024-02-02T04:43:22.337Z,70.44
2024-02-02T04:45:50.349Z,70.16
2024-02-02T04:48:18.412Z,70.10
2024-02-02T04:50:47.698Z,70.29
2024-02-02T04:53:17.118Z,70.77
2024-02-02T04:55:45.063Z,70.92
2024-02-02T04:58:13.276Z,71.05
2024-02-02T05:00:41.702Z,70.72
2024-02-02T05:03:09.692Z,70.62
2024-02-02T05:05:38.969Z,70.83
2024-02-02T05:08:07.782Z,70.77
2024-02-02T05:10:35.740Z,71.12
2024-02-02T05:13:03.947Z,71.58
2024-02-02T05:15:32.169Z,72.18
2024-02-02T05:18:00.463Z,72.12
2024-02-02T05:20:29.329Z,71.63
2024-02-02T05:22:57.512Z,71.30
2024-02-02T05:25:25.431Z,71.04
2024-02-02T05:27:53.716Z,71.23
2024-02-02T05:30:22.045Z,71.56
2024-02-02T05:32:51.679Z,71.71
2024-02-02T05:35:19.686Z,71.98
2024-02-02T05:37:48.765Z,71.94
2024-02-02T05:40:16.708Z,72.06
2024-02-02T05:42:46.762Z,72.53
2024-02-02T05:45:14.878Z,73.49
2024-02-02T05:47:43.256Z,73.18
2024-02-02T05:50:11.347Z,72.54
2024-02-02T05:52:40.722Z,72.07
2024-02-02T05:55:09.425Z,71.83
2024-02-02T05:57:37.642Z,71.60
2024-02-02T06:00:07.094Z,71.69
2024-02-02T06:02:35.056Z,71.77
2024-02-02T06:05:04.908Z,71.93
2024-02-02T06:07:32.871Z,72.09
2024-02-02T06:10:01.153Z,71.56
2024-02-02T06:12:29.399Z,71.37
2024-02-02T06:14:58.932Z,71.20
2024-02-02T06:17:27.884Z,70.94
2024-02-02T06:19:56.436Z,71.05
2024-02-02T06:22:25.124Z,71.30
2024-02-02T06:24:53.874Z,71.43
2024-02-02T06:27:24.127Z,71.50
2024-02-02T06:29:53.421Z,71.26
2024-02-02T06:32:23.572Z,71.13
2024-02-02T06:34:57.149Z,70.83
2024-02-02T06:37:26.290Z,70.44
2024-02-02T06:39:56.219Z,70.23
2024-02-02T06:42:27.791Z,70.35
2024-02-02T06:44:58.341Z,70.03
2024-02-02T06:47:26.968Z,70.34
2024-02-02T06:49:55.336Z,70.58
2024-02-02T06:52:23.658Z,70.63
2024-02-02T06:54:51.891Z,70.32
2024-02-02T06:57:21.463Z,70.11
2024-02-02T06:59:51.241Z,69.78
2024-02-02T07:02:22.340Z,69.35
2024-02-02T07:04:50.511Z,69.13
2024-02-02T07:07:19.045Z,68.94
2024-02-02T07:09:57.357Z,68.85
2024-02-02T07:12:37.599Z,69.01
2024-02-02T07:15:07.773Z,69.16
2024-02-02T07:17:38.762Z,69.33
2024-02-02T07:20:27.336Z,69.08
2024-02-02T07:22:58.149Z,69.00
2024-02-02T07:25:27.854Z,68.66
2024-02-02T07:28:01.937Z,68.43
2024-02-02T07:30:46.116Z,68.18
2024-02-02T07:33:26.748Z,67.95
2024-02-02T07:35:58.922Z,67.84
2024-02-02T07:38:35.806Z,67.45
2024-02-02T07:41:13.213Z,67.53
2024-02-02T07:43:41.913Z,68.09
2024-02-02T07:46:14.351Z,68.09
2024-02-02T07:48:48.423Z,68.03
2024-02-02T07:51:19.893Z,67.82
2024-02-02T07:53:53.517Z,67.39
2024-02-02T07:56:25.221Z,67.32
2024-02-02T07:58:53.384Z,67.10
2024-02-02T08:01:21.552Z,66.36
2024-02-02T08:03:49.651Z,66.25
2024-02-02T08:06:18.163Z,66.35
2024-02-02T08:08:46.311Z,66.11
2024-02-02T08:11:14.555Z,65.83
2024-02-02T08:13:43.330Z,66.32
2024-02-02T08:16:11.523Z,66.04
2024-02-02T08:18:40.065Z,65.79
2024-02-02T08:21:09.295Z,65.70
2024-02-02T08:23:39.067Z,65.57
2024-02-02T08:26:08.074Z,65.69
2024-02-02T08:28:45.375Z,65.95
2024-02-02T08:31:20.799Z,66.14
2024-02-02T08:33:49.407Z,66.67
2024-02-02T08:36:19.679Z,66.55
2024-02-02T08:38:48.183Z,65.72
2024-02-02T08:41:17.523Z,65.18
2024-02-02T08:43:48.417Z,64.92
2024-02-02T08:46:20.747Z,64.98
2024-02-02T08:48:51.451Z,65.29
2024-02-02T08:51:39.355Z,65.20
2024-02-02T08:54:47.050Z,65.41
2024-02-02T08:57:27.799Z,65.71
2024-02-02T08:59:56.898Z,65.79
2024-02-02T09:02:36.862Z,65.80
2024-02-02T09:05:20.109Z,65.50
2024-02-02T09:07:54.295Z,66.26
2024-02-02T09:11:00.241Z,67.02
2024-02-02T09:13:33.650Z,67.12
2024-02-02T09:16:01.814Z,66.79
2024-02-02T09:18:37.576Z,66.44
2024-02-02T09:21:08.789Z,66.00
2024-02-02T09:23:37.757Z,64.34
2024-02-02T09:26:16.726Z,63.80
2024-02-02T09:28:47.005Z,64.09
2024-02-02T09:31:22.181Z,65.00
2024-02-02T09:33:54.955Z,65.83
2024-02-02T09:36:30.538Z,65.92
2024-02-02T09:39:03.417Z,64.95
2024-02-02T09:42:02.575Z,64.26
2024-02-02T09:45:12.895Z,63.30
2024-02-02T09:48:14.668Z,63.63
2024-02-02T09:50:56.785Z,63.77
2024-02-02T09:53:50.178Z,63.58
2024-02-02T09:56:26.913Z,63.09
2024-02-02T09:58:59.520Z,62.93
2024-02-02T10:01:30.649Z,63.05
2024-02-02T10:04:09.861Z,63.16
2024-02-02T10:06:55.995Z,62.63
2024-02-02T10:09:43.356Z,63.23
2024-02-02T10:12:30.001Z,63.09
2024-02-02T10:15:37.120Z,62.32
2024-02-02T10:18:22.254Z,61.17
2024-02-02T10:20:56.585Z,61.47
2024-02-02T10:23:30.721Z,60.87
2024-02-02T10:26:32.489Z,61.13
2024-02-02T10:29:30.011Z,61.22
2024-02-02T10:32:18.489Z,61.05
2024-02-02T10:35:23.734Z,60.81
2024-02-02T10:37:55.855Z,61.20
2024-02-02T10:40:44.274Z,61.14
2024-02-02T10:43:34.437Z,61.21
2024-02-02T10:46:41.653Z,60.92
2024-02-02T10:49:31.580Z,61.02
2024-02-02T10:52:24.264Z,61.14
2024-02-02T10:54:53.728Z,61.19
2024-02-02T10:57:28.076Z,60.46
2024-02-02T11:00:38.205Z,60.70
2024-02-02T11:03:16.975Z,61.43
2024-02-02T11:06:19.422Z,61.62
2024-02-02T11:08:57.843Z,61.40
2024-02-02T11:11:28.562Z,61.43
2024-02-02T11:14:13.039Z,61.40
2024-02-02T11:16:43.996Z,61.36
2024-02-02T11:19:18.332Z,61.25
2024-02-02T11:21:46.468Z,61.16
2024-02-02T11:24:36.435Z,60.39
2024-02-02T11:27:15.741Z,59.69
2024-02-02T11:30:08.588Z,58.78
2024-02-02T11:33:02.540Z,59.33
2024-02-02T11:36:04.991Z,59.68
2024-02-02T11:38:46.629Z,60.09
2024-02-02T11:41:23.055Z,59.79
2024-02-02T11:43:53.624Z,59.66
2024-02-02T11:46:27.721Z,59.36
2024-02-02T11:49:08.612Z,59.51
2024-02-02T11:51:38.936Z,59.16
2024-02-02T11:54:19.810Z,58.37
2024-02-02T11:56:52.595Z,57.94
2024-02-02T11:59:33.401Z,57.46
2024-02-02T12:02:14.620Z,57.52
2024-02-02T12:05:05.033Z,57.56
2024-02-02T12:07:44.546Z,57.97
2024-02-02T12:10:18.003Z,58.43
2024-02-02T12:13:03.893Z,58.92
2024-02-02T12:15:35.021Z,58.92
2024-02-02T12:18:04.422Z,58.14
2024-02-02T12:20:52.695Z,57.60
2024-02-02T12:23:22.890Z,56.98
2024-02-02T12:25:52.800Z,56.92
2024-02-02T12:28:20.879Z,57.40
2024-02-02T12:30:49.139Z,57.48
2024-02-02T12:33:20.976Z,57.42
2024-02-02T12:35:48.796Z,57.12
2024-02-02T12:38:24.120Z,57.40
2024-02-02T12:40:52.363Z,57.59
2024-02-02T12:43:25.748Z,57.44
2024-02-02T12:45:58.455Z,57.82
2024-02-02T12:48:26.843Z,58.38
2024-02-02T12:50:55.299Z,57.49
2024-02-02T12:53:23.375Z,56.88
2024-02-02T12:55:52.198Z,57.68
2024-02-02T12:58:25.692Z,57.56
2024-02-02T13:00:54.213Z,57.40
2024-02-02T13:03:25.906Z,57.60
2024-02-02T13:05:57.547Z,57.35
2024-02-02T13:08:39.438Z,57.18
2024-02-02T13:11:19.419Z,57.04
2024-02-02T13:13:47.779Z,56.82
2024-02-02T13:16:31.401Z,56.53
2024-02-02T13:19:00.120Z,56.48
2024-02-02T13:21:28.684Z,56.28
2024-02-02T13:23:58.183Z,55.92
2024-02-02T13:26:40.112Z,55.85
2024-02-02T13:29:11.262Z,56.02
2024-02-02T13:31:42.172Z,56.32
2024-02-02T13:34:15.931Z,56.28
2024-02-02T13:36:45.756Z,55.52
2024-02-02T13:39:20.534Z,55.68
2024-02-02T13:41:49.287Z,55.80
2024-02-02T13:44:24.018Z,56.27
2024-02-02T13:46:52.476Z,56.09
2024-02-02T13:49:24.561Z,55.80
2024-02-02T13:51:54.085Z,55.63
2024-02-02T13:54:23.572Z,55.93
2024-02-02T13:56:52.696Z,56.51
2024-02-02T13:59:22.485Z,57.21
2024-02-02T14:01:53.320Z,57.60
2024-02-02T14:04:27.056Z,57.45
2024-02-02T14:06:55.685Z,57.48
2024-02-02T14:09:24.397Z,57.77
2024-02-02T14:12:02.468Z,57.68
2024-02-02T14:14:31.092Z,58.20
2024-02-02T14:17:03.352Z,58.35
2024-02-02T14:19:32.494Z,58.55
2024-02-02T14:22:09.266Z,58.54
2024-02-02T14:24:50.188Z,58.75
2024-02-02T14:27:18.338Z,58.93
2024-02-02T14:29:46.833Z,58.79
2024-02-02T14:32:14.880Z,58.94
2024-02-02T14:34:43.522Z,58.54
2024-02-02T14:37:16.022Z,58.60
2024-02-02T14:39:44.112Z,58.71
2024-02-02T14:42:12.315Z,58.53
2024-02-02T14:44:42.563Z,58.61
2024-02-02T14:47:13.396Z,58.42
2024-02-02T14:49:42.608Z,58.34
2024-02-02T14:52:14.446Z,58.34
2024-02-02T14:54:42.405Z,58.43
2024-02-02T14:57:10.984Z,58.31
2024-02-02T14:59:43.266Z,58.18
2024-02-02T15:02:14.227Z,58.39
2024-02-02T15:04:42.350Z,58.28
2024-02-02T15:07:11.216Z,58.11
2024-02-02T15:09:40.866Z,58.06
2024-02-02T15:12:09.893Z,58.20
2024-02-02T15:14:38.490Z,58.13
2024-02-02T15:17:06.655Z,58.21
2024-02-02T15:19:34.894Z,58.16
2024-02-02T15:22:03.731Z,57.99
2024-02-02T15:24:33.184Z,58.25
2024-02-02T15:27:03.956Z,58.24
2024-02-02T15:29:33.620Z,58.13
2024-02-02T15:32:02.648Z,57.78
2024-02-02T15:34:31.053Z,57.91
2024-02-02T15:37:02.170Z,57.94
2024-02-02T15:39:37.482Z,58.02
2024-02-02T15:42:08.415Z,58.00
2024-02-02T15:44:36.688Z,57.78
2024-02-02T15:47:05.501Z,58.06
2024-02-02T15:49:33.870Z,58.50
2024-02-02T15:52:04.484Z,58.59
2024-02-02T15:54:36.216Z,58.70
2024-02-02T15:57:06.063Z,58.71
2024-02-02T15:59:34.080Z,59.55
2024-02-02T16:02:05.773Z,59.06
2024-02-02T16:04:33.890Z,58.78
2024-02-02T16:07:05.611Z,58.70
2024-02-02T16:09:41.548Z,58.87
2024-02-02T16:12:13.118Z,58.84
2024-02-02T16:14:52.304Z,58.97
2024-02-02T16:17:20.374Z,58.98
2024-02-02T16:19:50.026Z,58.93
2024-02-02T16:22:20.627Z,58.92
2024-02-02T16:24:48.711Z,59.04
2024-02-02T16:27:17.140Z,59.08
2024-02-02T16:29:45.139Z,59.12
2024-02-02T16:32:13.343Z,59.03
2024-02-02T16:34:43.530Z,59.08
2024-02-02T16:37:11.568Z,59.15
2024-02-02T16:39:43.582Z,59.18
2024-02-02T16:42:14.328Z,59.25
2024-02-02T16:44:45.541Z,59.12
2024-02-02T16:47:14.574Z,59.01
2024-02-02T16:49:48.114Z,58.79
2024-02-02T16:52:16.479Z,58.80
2024-02-02T16:54:46.080Z,58.84
2024-02-02T16:57:14.627Z,58.75
2024-02-02T16:59:44.027Z,58.65
2024-02-02T17:02:12.741Z,58.39
2024-02-02T17:04:43.804Z,58.52
2024-02-02T17:07:12.373Z,58.36
2024-02-02T17:09:45.854Z,58.20
2024-02-02T17:12:16.602Z,58.14
2024-02-02T17:14:45.186Z,58.25
2024-02-02T17:17:13.242Z,58.41
2024-02-02T17:19:44.450Z,58.53
2024-02-02T17:22:12.950Z,58.56
2024-02-02T17:24:42.314Z,58.54
2024-02-02T17:27:11.157Z,58.82
2024-02-02T17:29:43.360Z,58.77
2024-02-02T17:32:16.238Z,58.65
2024-02-02T17:34:49.260Z,58.76
2024-02-02T17:37:17.679Z,58.76
2024-02-02T17:39:46.977Z,58.53
2024-02-02T17:42:15.903Z,58.63
2024-02-02T17:44:44.466Z,58.58
2024-02-02T17:47:12.813Z,59.40
2024-02-02T17:49:46.002Z,59.48
2024-02-02T17:52:26.439Z,58.93
2024-02-02T17:54:55.516Z,58.86
2024-02-02T17:57:24.802Z,58.86
2024-02-02T17:59:53.684Z,58.74
2024-02-02T18:02:23.001Z,58.88
2024-02-02T18:04:51.986Z,58.91
2024-02-02T18:07:30.282Z,58.92
2024-02-02T18:10:04.902Z,58.90
2024-02-02T18:12:39.091Z,58.78
2024-02-02T18:15:09.115Z,58.87
2024-02-02T18:17:38.323Z,58.97
2024-02-02T18:20:08.671Z,58.91
2024-02-02T18:22:37.046Z,58.85
2024-02-02T18:25:05.285Z,58.85
2024-02-02T18:27:34.127Z,59.01
2024-02-02T18:30:02.455Z,58.98
2024-02-02T18:32:30.869Z,58.90
2024-02-02T18:34:59.882Z,59.06
2024-02-02T18:37:30.954Z,59.11
2024-02-02T18:39:59.482Z,59.00
2024-02-02T18:42:27.558Z,58.98
2024-02-02T18:44:55.762Z,59.08
2024-02-02T18:47:23.793Z,59.13
2024-02-02T18:49:53.637Z,59.32
2024-02-02T18:52:22.085Z,59.31
2024-02-02T18:54:50.385Z,59.34
2024-02-02T18:57:19.250Z,59.34
2024-02-02T18:59:47.418Z,59.35
2024-02-02T19:02:15.498Z,59.43
2024-02-02T19:04:45.074Z,59.27
2024-02-02T19:07:14.783Z,59.29
2024-02-02T19:09:42.962Z,59.36
2024-02-02T19:12:11.339Z,59.49
2024-02-02T19:14:39.455Z,59.50
2024-02-02T19:17:07.313Z,59.52
2024-02-02T19:19:35.541Z,59.57
2024-02-02T19:22:04.437Z,59.58
2024-02-02T19:24:32.480Z,59.64
2024-02-02T19:27:00.497Z,59.63
2024-02-02T19:29:28.962Z,59.72
2024-02-02T19:31:59.717Z,59.73
2024-02-02T19:34:30.486Z,59.82
2024-02-02T19:37:02.275Z,59.89
2024-02-02T19:39:32.611Z,59.90
2024-02-02T19:42:02.013Z,60.02
2024-02-02T19:44:30.110Z,59.84
2024-02-02T19:46:58.513Z,59.96
2024-02-02T19:49:26.553Z,60.09
2024-02-02T19:51:55.988Z,60.01
2024-02-02T19:54:26.574Z,60.05
2024-02-02T19:56:54.566Z,60.05
2024-02-02T19:59:23.076Z,59.98
2024-02-02T20:01:51.107Z,60.07
2024-02-02T20:04:19.186Z,59.97
2024-02-02T20:06:47.953Z,59.95
2024-02-02T20:09:17.133Z,60.13
2024-02-02T20:11:45.727Z,60.08
2024-02-02T20:14:14.132Z,60.03
2024-02-02T20:16:43.163Z,59.96
2024-02-02T20:19:11.649Z,60.13
2024-02-02T20:21:39.715Z,60.20
2024-02-02T20:24:08.923Z,60.22
2024-02-02T20:26:37.087Z,60.41
2024-02-02T20:29:05.031Z,60.33
2024-02-02T20:31:34.232Z,60.17
2024-02-02T20:34:02.758Z,60.13
2024-02-02T20:36:32.373Z,59.91
2024-02-02T20:39:00.635Z,59.82
2024-02-02T20:41:29.186Z,59.60
2024-02-02T20:43:59.055Z,59.70
2024-02-02T20:46:27.517Z,59.73
2024-02-02T20:48:56.013Z,59.70
2024-02-02T20:51:24.161Z,59.90
2024-02-02T20:53:52.289Z,59.75
2024-02-02T20:56:20.446Z,59.78
2024-02-02T20:58:48.534Z,59.76
2024-02-02T21:01:16.659Z,59.77
2024-02-02T21:03:45.510Z,59.64
2024-02-02T21:06:14.377Z,59.70
2024-02-02T21:08:45.898Z,59.63
2024-02-02T21:11:13.942Z,59.66
2024-02-02T21:13:41.874Z,59.53
2024-02-02T21:16:10.020Z,59.54
2024-02-02T21:18:38.347Z,59.24
2024-02-02T21:21:07.605Z,59.31
2024-02-02T21:23:35.766Z,59.17
2024-02-02T21:26:03.983Z,59.09
2024-02-02T21:28:31.894Z,59.12
2024-02-02T21:31:00.632Z,59.07
2024-02-02T21:33:28.906Z,59.07
2024-02-02T21:35:58.440Z,58.99
2024-02-02T21:38:27.935Z,58.89
2024-02-02T21:40:55.951Z,58.89
2024-02-02T21:43:24.044Z,58.80
2024-02-02T21:45:52.362Z,58.72
2024-02-02T21:48:23.443Z,58.83
2024-02-02T21:50:53.360Z,58.73
2024-02-02T21:53:21.643Z,58.70
2024-02-02T21:55:49.460Z,58.67
2024-02-02T21:58:17.668Z,58.64
2024-02-02T22:00:47.295Z,58.68
2024-02-02T22:03:15.521Z,58.71
2024-02-02T22:05:43.771Z,58.65
2024-02-02T22:08:12.552Z,58.59
2024-02-02T22:10:40.695Z,58.55
2024-02-02T22:13:10.533Z,58.68
2024-02-02T22:15:39.167Z,58.54
2024-02-02T22:18:11.198Z,58.58
2024-02-02T22:20:46.085Z,58.60
2024-02-02T22:23:15.414Z,58.49
2024-02-02T22:25:43.779Z,58.61
2024-02-02T22:28:12.190Z,58.56
2024-02-02T22:30:41.525Z,58.43
2024-02-02T22:33:10.107Z,58.30
2024-02-02T22:35:38.068Z,58.24
2024-02-02T22:38:06.173Z,58.26
2024-02-02T22:40:34.325Z,58.08
2024-02-02T22:43:02.452Z,58.14
2024-02-02T22:45:30.635Z,57.67
2024-02-02T22:47:58.837Z,57.85
2024-02-02T22:50:27.036Z,57.89
2024-02-02T22:52:56.071Z,57.81
2024-02-02T22:55:24.378Z,57.80
2024-02-02T22:57:52.308Z,57.69
2024-02-02T23:00:22.693Z,57.73
2024-02-02T23:02:50.777Z,57.55
2024-02-02T23:05:19.010Z,57.70
2024-02-02T23:07:48.237Z,57.62
2024-02-02T23:10:16.832Z,57.50
2024-02-02T23:12:46.464Z,57.53
2024-02-02T23:15:14.687Z,57.59
2024-02-02T23:17:42.816Z,57.35
2024-02-02T23:20:11.449Z,57.33
2024-02-02T23:22:39.540Z,57.29
2024-02-02T23:25:08.432Z,57.20
2024-02-02T23:27:38.022Z,57.01
2024-02-02T23:30:07.123Z,57.07
2024-02-02T23:32:35.497Z,57.09
2024-02-02T23:35:04.083Z,57.14
2024-02-02T23:37:32.181Z,56.92
2024-02-02T23:40:02.030Z,57.04
2024-02-02T23:42:31.221Z,56.98
2024-02-02T23:44:59.351Z,56.94
2024-02-02T23:47:28.903Z,56.95
2024-02-02T23:49:57.076Z,56.86
2024-02-02T23:52:25.527Z,56.65
2024-02-02T23:54:54.444Z,56.57
2024-02-02T23:57:25.962Z,56.65
2024-02-02T23:59:54.375Z,56.86
